Creedmoor, North Carolina
Current Conditions -  °F | °C
As of 10:51 PM on Sunday 21 Dec 2014 (Local Time) from KRDU Reporting Station
Overcast Overcast  
Wind Chill: 39°   Ceiling: 4800
Heat Index: 43°   Visibility: 10mi
Dew Point: 31°   Wind: 7mph
Humidity: 62%   Direction: 60°ENE
Pressure: 30.24"   Gusts: NA
Location:  36.12°N, 78.69°W
Report Text: KRDU 220351Z 06006KT 10SM OVC048 06/M01 A3024 RMK AO2 SLP243 T00611006
Loading
Personal Weather Stations






























Interactive Weather Map New forecast layout! Learn more

10-Day Weather Forecast

Advertisements
Track Severe Weather on mobile